Station: Beaudesert Aws

  Atmospheric Gas Attenuation - ITU Rec 676-11   --------------- db/100km ---------------
Date Time Temp RH % AH g/m3 Dew Point Wind Direction Speed kph Gust kph Barometer mB Rainfall Since 9am 24GHz 47GHz 76GHz 122GHz 134GHz 241GHz
26 13:14 31.3 55 17.89 21.4 0 2 1009.3 0 38.0 35.1 66.1 174.9 190.8 663.3
26 13:10 31.2 55 17.8 21.3 4 4 1009.3 0 37.8 35.0 65.8 174.2 189.8 659.9
26 13:00 30.5 54 16.83 20.4 2 6 1009.5 0 35.9 33.7 62.4 165.0 178.3 619.8
26 12:50 31.3 54 17.57 21.1 0 0 1009.5 0 37.4 34.6 64.8 171.4 186.5 648.2
26 12:40 30.8 57 18.05 21.3 2 2 1009.5 0 38.4 35.6 67.2 177.9 194.3 675.4
26 12:30 30.5 60 18.7 21.9 4 9 1009.7 0 39.8 36.8 70.3 186.0 204.2 709.8
26 12:20 31.4 59 19.3 22.4 6 6 1009.8 0 40.9 37.5 72.1 190.8 210.2 731.0
26 12:10 31 60 19.21 22.3 9 11 1009.9 0 40.8 37.5 72.1 190.7 210.1 730.4
26 12:00 30.7 62 19.53 22.6 2 6 1010 0 41.5 38.2 73.8 195.2 215.5 749.3
26 11:50 30 59 17.9 21.3 2 4 1010.1 0 38.2 35.7 67.3 178.1 194.3 675.4
26 11:40 30.3 59 18.19 21.6 6 6 1010.2 0 38.7 36.1 68.3 180.7 197.6 686.9
26 11:30 30.3 64 19.73 22.7 6 9 1010.2 0 42.0 38.8 75.1 198.6 219.6 763.4
26 11:20 29.8 63 18.9 22.2 6 7 1010.4 0 40.3 37.5 71.9 190.2 209.0 726.6
26 11:10 29.9 63 19.01 22.3 4 4 1010.5 0 40.5 37.7 72.3 191.2 210.3 731.2
26 11:00 29.4 65 19.08 22.1 4 9 1010.5 0 40.7 38.0 73.0 193.3 212.8 739.5
26 10:50 29.2 63 18.3 21.6 11 13 1010.6 0 39.1 36.7 69.8 184.7 202.1 702.4
26 10:40 29.1 64 18.49 21.8 6 7 1010.7 0 39.5 37.1 70.7 187.1 205.1 712.8
26 10:30 28.8 64 18.19 21.3 6 9 1010.8 0 38.9 36.7 69.7 184.4 201.6 700.7
26 10:20 28.7 64 18.09 21.4 6 6 1010.9 0 38.7 36.6 69.4 183.4 200.5 696.6
26 10:10 28.8 64 18.19 21.3 2 4 1011 0 38.9 36.7 69.7 184.4 201.6 700.8
26 09:59 28.8 64 18.19 21.5 4 6 1011.1 0 38.9 36.7 69.7 184.4 201.7 700.8
26 09:50 28.5 64 17.89 21.2 2 6 1011.2 0 38.3 36.3 68.7 181.6 198.2 688.7
26 09:40 28.4 68 18.9 22.1 6 7 1011.2 0 40.4 38.2 73.2 193.8 213.0 740.4
26 09:30 27.9 66 17.85 21 4 7 1011.4 0 38.2 36.5 69.0 182.6 199.2 692.1
26 09:20 27.1 70 18.12 21.3 7 9 1011.4 0 38.9 37.4 71.0 187.7 205.3 713.1
26 09:10 26.9 69 17.66 20.9 4 6 1011.4 0 37.9 36.6 69.1 182.8 199.1 691.6
26 09:00 27.6 69 18.36 21.4 6 13 1011.4 0 39.3 37.6 71.6 189.4 207.4 720.6
26 08:50 27 73 18.79 21.9 2 4 1011.4 5.8 40.3 38.6 74.1 196.0 215.4 748.5
26 08:40 26.8 73 18.58 21.7 4 4 1011.4 5.8 39.9 38.3 73.3 194.0 212.9 739.6
26 08:00 26.9 81 20.73 23.4 2 4 1011.5 44.4 42.3 83.3 220.5 245.4 852.8
26 07:59 26.9 80 20.48 23.3 0 0 1011.5 5.8 43.9 41.9 82.1 217.3 241.5 839.2
26 07:50 25.9 79 19.13 22.1 0 0 1011.4 5.8 41.2 39.8 76.8 203.1 223.8 777.4
26 07:40 26 80 19.48 22.4 2 4 1011.4 5.8 41.9 40.4 78.3 207.2 228.9 795.0
26 07:30 25.1 83 19.21 22 0 0 1011.3 5.8 41.4 40.3 78.0 206.3 227.4 789.9
26 07:20 25 84 19.34 22.1 0 0 1011.3 5.8 41.7 40.6 78.7 208.2 229.7 798.0
26 07:10 24.3 87 19.25 22.1 0 0 1011.2 5.8 41.6 40.8 79.0 209.0 230.5 800.5
26 07:00 23.9 91 19.69 22.3 0 0 1011.2 5.8 42.6 41.8 81.5 215.8 238.7 829.1
26 06:50 23.7 93 19.89 22.5 0 0 1011 5.8 43.0 42.3 82.7 218.9 242.5 842.3
26 06:40 23.7 93 19.89 22.6 0 0 1011 5.8 43.0 42.3 82.7 218.9 242.5 842.3
26 06:30 23.4 98 20.61 23.1 0 0 1010.8 5.8 44.6 43.9 86.6 229.3 255.2 886.4
26 06:20 22.6 98 19.69 22.2 0 0 1010.6 5.8 42.7 42.5 82.9 219.4 242.9 843.3
26 06:10 22.4 98 19.46 22 0 0 1010.4 5.8 42.2 42.1 82.0 217.0 239.8 832.4
26 06:00 22.4 99 19.66 22.2 0 0 1010.3 5.8 42.7 42.5 83.0 219.6 243.0 843.7
26 05:50 22.4 97 19.26 21.9 0 0 1010.2 5.8 41.8 41.7 81.0 214.3 236.5 821.1
26 05:40 22.5 97 19.37 22 0 0 1010.1 5.8 42.0 41.9 81.4 215.4 237.9 826.1
26 05:30 22.6 98 19.69 22.3 0 0 1010.1 5.8 42.7 42.4 82.9 219.4 242.8 843.0
26 05:20 22.7 98 19.8 22.3 0 0 1010.1 5.8 42.9 42.6 83.3 220.5 244.2 848.1
26 05:10 22.8 97 19.71 22.3 0 0 1010.1 5.8 42.7 42.4 82.8 219.0 242.4 841.9
26 04:50 22.8 97 19.71 22.3 0 0 1010.1 5.8 42.7 42.4 82.8 219.0 242.4 841.9
26 04:40 22.8 97 19.71 22.3 0 0 1010.3 5.8 42.7 42.4 82.8 219.1 242.5 842.0
26 04:20 22.8 97 19.71 22.3 0 0 1010.3 5.8 42.7 42.4 82.8 219.1 242.5 842.0
26 04:10 22.8 98 19.91 22.4 2 4 1010.3 5.8 43.2 42.8 83.8 221.7 245.7 853.3
26 04:00 22.7 98 19.8 22.4 0 0 1010.4 5.8 42.9 42.6 83.4 220.6 244.3 848.2
26 03:50 22.6 98 19.69 22.2 0 0 1010.4 5.8 42.7 42.5 82.9 219.4 242.8 843.2
26 03:40 22.7 98 19.8 22.3 0 0 1010.5 5.8 42.9 42.6 83.4 220.6 244.3 848.3
26 03:30 22.7 98 19.8 22.4 0 0 1010.5 5.8 42.9 42.6 83.4 220.6 244.3 848.3
26 03:20 22.6 97 19.48 22.1 0 0 1010.4 5.8 42.3 42.0 81.9 216.6 239.4 831.3
26 03:10 22.7 98 19.8 22.3 0 0 1010.6 5.8 42.9 42.6 83.4 220.6 244.3 848.4
26 03:00 22.6 98 19.69 22.3 0 0 1010.6 5.8 42.7 42.5 82.9 219.4 242.9 843.3
26 02:50 22.6 98 19.69 22.2 0 0 1010.6 5.8 42.7 42.5 82.9 219.4 242.9 843.3
26 02:40 22.7 98 19.8 22.3 0 0 1010.6 5.8 42.9 42.6 83.4 220.6 244.3 848.4
26 02:30 22.7 98 19.8 22.4 0 0 1010.7 5.8 42.9 42.6 83.4 220.6 244.3 848.4
26 02:20 22.6 98 19.69 22.2 0 0 1010.8 5.8 42.7 42.5 82.9 219.5 242.9 843.4
26 02:10 22.6 98 19.69 22.2 4 4 1010.9 5.8 42.7 42.5 83.0 219.5 242.9 843.4
26 02:00 22.8 97 19.71 22.3 0 0 1011 5.8 42.7 42.4 82.8 219.2 242.6 842.4
26 01:50 23.1 97 20.05 22.6 0 0 1011 5.8 43.4 42.9 84.2 222.8 247.1 858.1
26 01:40 23.1 97 20.05 22.6 2 4 1011.2 5.8 43.4 43.0 84.2 222.8 247.2 858.3
26 01:30 22.9 97 19.82 22.4 0 0 1011.3 5.8 43.0 42.6 83.3 220.4 244.1 847.6
26 01:20 22.9 97 19.82 22.4 0 0 1011.4 5.8 43.0 42.6 83.3 220.4 244.1 847.7
26 01:10 22.9 96 19.62 22.2 0 0 1011.5 5.8 42.5 42.2 82.3 217.8 240.9 836.5
26 01:00 22.8 96 19.51 22.1 0 0 1011.5 5.8 42.3 42.0 81.9 216.6 239.4 831.4
26 00:50 22.8 96 19.51 22.1 0 0 1011.3 5.8 42.3 42.0 81.9 216.6 239.4 831.3
26 00:40 23 95 19.52 22.1 0 0 1011.4 5.8 42.3 42.0 81.7 216.2 238.9 829.7
26 00:30 23 95 19.52 22.2 0 0 1011.4 5.8 42.3 42.0 81.7 216.2 238.9 829.7
26 00:20 23 95 19.52 22.1 0 0 1011.5 5.8 42.3 42.0 81.7 216.2 239.0 829.7
26 00:10 23 96 19.73 22.3 2 2 1011.6 5.8 42.7 42.4 82.8 219.0 242.4 841.6
26 00:00 23 95 19.52 22.2 0 0 1011.8 5.8 42.3 42.0 81.7 216.2 239.0 829.9
25 23:50 23.4 95 19.98 22.5 0 0 1011.9 5.8 43.2 42.7 83.6 221.1 245.1 851.3
25 23:40 23.3 95 19.86 22.4 0 0 1012 5.8 43.0 42.5 83.1 219.9 243.5 845.7
25 23:30 23.2 96 19.96 22.5 0 0 1012.1 5.8 43.2 42.8 83.7 221.5 245.5 852.5
25 23:20 23.1 95 19.64 22.2 0 0 1012.2 5.8 42.5 42.2 82.2 217.6 240.7 835.7
25 23:10 23.3 93 19.44 22.2 0 0 1012.4 5.8 42.1 41.7 81.0 214.4 236.8 822.4
25 23:00 23.3 93 19.44 22.1 0 0 1012.3 5.8 42.1 41.7 81.0 214.4 236.8 822.4
25 22:50 23 93 19.11 21.8 0 0 1012.4 5.8 41.4 41.2 79.8 211.0 232.5 807.4
25 22:40 23.5 93 19.67 22.3 0 0 1012.2 5.8 42.6 42.0 81.9 216.8 239.9 832.9
25 22:30 23.7 92 19.68 22.3 0 0 1012.2 5.8 42.6 42.0 81.8 216.4 239.4 831.3
25 22:20 23.5 91 19.24 21.9 0 0 1012.2 5.8 41.6 41.2 79.8 211.2 233.0 809.1
25 22:10 23.8 90 19.36 22 0 0 1012.2 5.8 41.9 41.3 80.1 211.9 233.9 812.5
25 22:00 23.9 89 19.25 22 0 0 1012.2 5.8 41.6 41.0 79.5 210.2 231.9 805.3
25 21:50 24 88 19.14 22 0 0 1012.1 5.8 41.4 40.7 78.8 208.5 229.8 798.2
25 21:40 24.2 88 19.36 22.2 0 2 1012.2 5.8 41.8 41.1 79.7 210.8 232.7 808.1
25 21:30 24.5 88 19.69 22.4 4 7 1012.3 5.8 42.5 41.6 81.0 214.2 237.0 823.1
25 21:20 24.5 89 19.92 22.5 6 6 1012.4 5.8 43.0 42.0 82.1 217.2 240.6 835.8
25 21:10 24.4 89 19.81 22.4 6 7 1012.2 5.8 42.8 41.9 81.6 216.0 239.2 830.7
25 21:00 24.4 90 20.03 22.7 2 6 1012.1 5.8 43.2 42.3 82.7 218.9 242.7 842.9
25 20:50 24.3 90 19.92 22.5 4 6 1012.1 5.8 43.0 42.1 82.3 217.7 241.2 837.9
25 20:40 24.1 90 19.69 22.3 6 7 1011.9 5.8 42.5 41.8 81.4 215.3 238.2 827.2
25 20:30 24.2 89 19.58 22.3 4 6 1011.9 5.8 42.3 41.5 80.7 213.6 236.1 820.1
25 20:20 24.3 88 19.47 22.3 0 0 1011.9 5.8 42.0 41.2 80.1 211.9 234.1 812.9
25 20:10 24.3 87 19.25 22.1 0 0 1011.9 5.8 41.6 40.8 79.0 209.1 230.6 800.9

Last Refresh: 27-Feb-2021 01:39:17

Most of the information presented on this site is sourced from the Bureau of Meteorology.  Copyright in all material sourced from the Bureau of Meteorology resides with the Commonwealth of Australia.